createdAt,value
2023-02-23T00:02:07.310Z,33.41
2023-02-23T00:04:38.029Z,33.24
2023-02-23T00:07:08.910Z,33.24
2023-02-23T00:09:35.934Z,33.10
2023-02-23T00:12:07.861Z,33.41
2023-02-23T00:14:37.529Z,33.21
2023-02-23T00:17:04.346Z,33.42
2023-02-23T00:19:33.343Z,32.93
2023-02-23T00:22:01.065Z,32.96
2023-02-23T00:24:27.867Z,33.35
2023-02-23T00:26:54.421Z,33.29
2023-02-23T00:29:24.588Z,33.33
2023-02-23T00:31:52.174Z,33.28
2023-02-23T00:34:23.695Z,33.32
2023-02-23T00:36:54.338Z,33.25
2023-02-23T00:39:23.345Z,33.11
2023-02-23T00:41:50.037Z,33.27
2023-02-23T00:44:16.710Z,33.27
2023-02-23T00:46:45.298Z,33.34
2023-02-23T00:49:13.518Z,33.26
2023-02-23T00:51:41.444Z,33.01
2023-02-23T00:54:10.349Z,33.17
2023-02-23T00:56:36.848Z,33.08
2023-02-23T00:59:03.438Z,33.04
2023-02-23T01:01:30.105Z,32.92
2023-02-23T01:03:56.837Z,32.95
2023-02-23T01:06:24.257Z,32.94
2023-02-23T01:08:56.952Z,32.96
2023-02-23T01:11:28.520Z,33.14
2023-02-23T01:13:57.973Z,33.33
2023-02-23T01:16:30.275Z,32.90
2023-02-23T01:18:59.369Z,33.06
2023-02-23T01:21:28.976Z,33.01
2023-02-23T01:23:56.313Z,33.01
2023-02-23T01:26:28.209Z,32.98
2023-02-23T01:29:00.630Z,33.12
2023-02-23T01:31:29.342Z,33.14
2023-02-23T01:33:57.419Z,32.96
2023-02-23T01:36:25.663Z,32.79
2023-02-23T01:38:57.168Z,32.98
2023-02-23T01:41:25.110Z,33.06
2023-02-23T01:44:03.976Z,32.98
2023-02-23T01:46:33.053Z,32.77
2023-02-23T01:49:01.057Z,32.96
2023-02-23T01:51:32.110Z,33.07
2023-02-23T01:54:14.540Z,32.82
2023-02-23T01:56:45.889Z,32.98
2023-02-23T01:59:15.251Z,32.64
2023-02-23T02:01:43.110Z,32.85
2023-02-23T02:04:16.692Z,32.89
2023-02-23T02:06:46.864Z,32.50
2023-02-23T02:09:19.618Z,32.81
2023-02-23T02:11:54.026Z,32.72
2023-02-23T02:14:29.048Z,32.42
2023-02-23T02:17:07.878Z,32.64
2023-02-23T02:19:46.498Z,32.71
2023-02-23T02:22:22.252Z,32.74
2023-02-23T02:24:57.688Z,32.46
2023-02-23T02:27:43.597Z,32.55
2023-02-23T02:30:32.094Z,32.72
2023-02-23T02:33:15.706Z,32.48
2023-02-23T02:35:56.147Z,32.68
2023-02-23T02:38:35.739Z,32.63
2023-02-23T02:41:09.028Z,32.32
2023-02-23T02:43:58.815Z,32.66
2023-02-23T02:46:28.457Z,32.42
2023-02-23T02:49:07.653Z,32.29
2023-02-23T02:52:08.894Z,32.48
2023-02-23T02:54:43.869Z,32.31
2023-02-23T02:57:12.960Z,32.58
2023-02-23T03:00:04.453Z,32.32
2023-02-23T03:02:55.311Z,32.41
2023-02-23T03:06:07.490Z,32.35
2023-02-23T03:09:24.864Z,32.19
2023-02-23T03:12:22.218Z,32.49
2023-02-23T03:15:21.359Z,32.43
2023-02-23T03:18:11.719Z,32.38
2023-02-23T03:21:08.698Z,32.18
2023-02-23T03:24:04.271Z,32.47
2023-02-23T03:26:52.777Z,32.42
2023-02-23T03:29:49.553Z,32.31
2023-02-23T03:32:48.605Z,32.52
2023-02-23T03:35:53.908Z,32.51
2023-02-23T03:38:44.257Z,32.32
2023-02-23T03:41:31.310Z,32.09
2023-02-23T03:44:26.644Z,32.23
2023-02-23T03:47:12.745Z,32.14
2023-02-23T03:50:01.837Z,32.10
2023-02-23T03:52:55.732Z,32.15
2023-02-23T03:55:46.161Z,32.29
2023-02-23T03:58:36.570Z,32.13
2023-02-23T04:01:24.469Z,31.95
2023-02-23T04:04:11.321Z,31.96
2023-02-23T04:07:02.531Z,32.17
2023-02-23T04:09:48.686Z,32.04
2023-02-23T04:12:44.960Z,31.82
2023-02-23T04:15:24.918Z,31.75
2023-02-23T04:17:53.135Z,31.93
2023-02-23T04:20:20.657Z,32.02
2023-02-23T04:22:47.291Z,31.73
2023-02-23T04:25:17.327Z,32.02
2023-02-23T04:27:44.005Z,31.88
2023-02-23T04:30:11.531Z,31.83
2023-02-23T04:32:38.360Z,32.10
2023-02-23T04:35:05.222Z,32.02
2023-02-23T04:37:31.770Z,31.93
2023-02-23T04:39:58.323Z,31.64
2023-02-23T04:42:25.338Z,31.93
2023-02-23T04:44:51.833Z,31.56
2023-02-23T04:47:18.457Z,31.94
2023-02-23T04:49:45.059Z,31.79
2023-02-23T04:52:11.815Z,31.61
2023-02-23T04:54:39.403Z,31.76
2023-02-23T04:57:06.394Z,31.66
2023-02-23T04:59:33.614Z,31.68
2023-02-23T05:02:03.048Z,31.59
2023-02-23T05:04:29.571Z,31.50
2023-02-23T05:06:56.190Z,31.72
2023-02-23T05:09:22.775Z,31.58
2023-02-23T05:11:49.375Z,31.54
2023-02-23T05:14:15.886Z,31.60
2023-02-23T05:16:42.465Z,31.43
2023-02-23T05:19:08.990Z,31.74
2023-02-23T05:21:35.762Z,31.71
2023-02-23T05:24:02.355Z,31.67
2023-02-23T05:26:28.976Z,31.63
2023-02-23T05:28:56.938Z,31.51
2023-02-23T05:31:24.875Z,31.44
2023-02-23T05:33:51.478Z,31.39
2023-02-23T05:36:19.984Z,31.62
2023-02-23T05:38:47.713Z,31.74
2023-02-23T05:41:21.710Z,32.20
2023-02-23T05:43:52.277Z,31.78
2023-02-23T05:46:24.902Z,31.90
2023-02-23T05:48:56.978Z,31.69
2023-02-23T05:51:23.670Z,31.99
2023-02-23T05:53:50.176Z,31.79
2023-02-23T05:56:21.213Z,31.71
2023-02-23T05:58:57.776Z,31.63
2023-02-23T06:01:26.589Z,31.93
2023-02-23T06:03:53.289Z,31.72
2023-02-23T06:06:20.489Z,31.58
2023-02-23T06:08:47.050Z,31.88
2023-02-23T06:11:13.819Z,31.56
2023-02-23T06:13:41.134Z,31.56
2023-02-23T06:16:08.631Z,31.45
2023-02-23T06:18:35.537Z,31.24
2023-02-23T06:21:03.868Z,31.44
2023-02-23T06:23:32.023Z,31.47
2023-02-23T06:26:02.288Z,31.58
2023-02-23T06:28:29.443Z,31.41
2023-02-23T06:30:56.756Z,31.53
2023-02-23T06:33:25.789Z,31.53
2023-02-23T06:35:54.612Z,31.10
2023-02-23T06:38:22.009Z,31.17
2023-02-23T06:40:48.579Z,31.12
2023-02-23T06:43:15.209Z,31.17
2023-02-23T06:45:42.025Z,31.12
2023-02-23T06:48:08.706Z,31.28
2023-02-23T06:50:35.225Z,30.88
2023-02-23T06:53:02.228Z,31.06
2023-02-23T06:55:28.730Z,30.98
2023-02-23T06:57:55.367Z,30.81
2023-02-23T07:00:22.631Z,31.23
2023-02-23T07:02:49.297Z,31.06
2023-02-23T07:05:16.246Z,30.89
2023-02-23T07:07:43.369Z,30.97
2023-02-23T07:10:10.606Z,31.02
2023-02-23T07:12:37.215Z,31.55
2023-02-23T07:15:04.154Z,31.50
2023-02-23T07:17:30.765Z,31.90
2023-02-23T07:19:57.508Z,31.73
2023-02-23T07:22:27.374Z,31.65
2023-02-23T07:24:53.926Z,31.97
2023-02-23T07:27:23.242Z,31.79
2023-02-23T07:29:49.858Z,31.80
2023-02-23T07:32:16.441Z,32.16
2023-02-23T07:34:43.134Z,31.94
2023-02-23T07:37:09.647Z,32.07
2023-02-23T07:39:36.254Z,31.82
2023-02-23T07:42:04.029Z,32.07
2023-02-23T07:44:30.624Z,31.87
2023-02-23T07:46:57.598Z,31.54
2023-02-23T07:49:25.302Z,31.81
2023-02-23T07:51:51.990Z,31.74
2023-02-23T07:54:18.630Z,31.41
2023-02-23T07:56:45.216Z,31.59
2023-02-23T07:59:11.848Z,31.46
2023-02-23T08:01:38.354Z,31.40
2023-02-23T08:04:05.562Z,31.39
2023-02-23T08:06:32.207Z,31.48
2023-02-23T08:09:01.019Z,31.54
2023-02-23T08:11:30.184Z,31.44
2023-02-23T08:14:00.965Z,31.62
2023-02-23T08:16:32.075Z,31.59
2023-02-23T08:19:01.578Z,31.97
2023-02-23T08:21:29.897Z,32.19
2023-02-23T08:23:57.965Z,32.31
2023-02-23T08:26:25.453Z,32.53
2023-02-23T08:28:53.706Z,32.50
2023-02-23T08:31:23.776Z,32.56
2023-02-23T08:33:52.137Z,32.60
2023-02-23T08:36:23.115Z,32.88
2023-02-23T08:38:50.047Z,33.01
2023-02-23T08:41:17.592Z,33.28
2023-02-23T08:43:44.410Z,33.90
2023-02-23T08:46:11.273Z,34.48
2023-02-23T08:48:42.780Z,34.84
2023-02-23T08:51:09.373Z,35.33
2023-02-23T08:53:36.583Z,35.33
2023-02-23T08:56:06.584Z,35.83
2023-02-23T08:58:34.406Z,36.48
2023-02-23T09:01:04.166Z,36.62
2023-02-23T09:03:31.569Z,37.12
2023-02-23T09:06:04.384Z,37.22
2023-02-23T09:08:31.252Z,37.43
2023-02-23T09:10:57.743Z,37.46
2023-02-23T09:13:24.328Z,37.59
2023-02-23T09:15:51.575Z,37.79
2023-02-23T09:18:18.361Z,38.51
2023-02-23T09:20:45.183Z,38.52
2023-02-23T09:23:12.448Z,38.99
2023-02-23T09:25:43.351Z,39.15
2023-02-23T09:28:15.139Z,38.94
2023-02-23T09:30:43.635Z,39.21
2023-02-23T09:33:11.242Z,38.90
2023-02-23T09:35:38.279Z,39.30
2023-02-23T09:38:07.084Z,39.20
2023-02-23T09:40:54.424Z,38.94
2023-02-23T09:43:48.087Z,39.23
2023-02-23T09:46:59.765Z,38.72
2023-02-23T09:49:33.515Z,38.79
2023-02-23T09:52:01.858Z,38.91
2023-02-23T09:54:32.906Z,38.74
2023-02-23T09:57:04.849Z,38.97
2023-02-23T09:59:31.858Z,38.51
2023-02-23T10:02:08.057Z,38.50
2023-02-23T10:04:44.574Z,38.30
2023-02-23T10:07:13.918Z,38.51
2023-02-23T10:10:17.438Z,38.20
2023-02-23T10:13:02.265Z,38.28
2023-02-23T10:15:50.017Z,38.27
2023-02-23T10:18:46.651Z,38.05
2023-02-23T10:21:17.138Z,38.16
2023-02-23T10:23:50.940Z,38.25
2023-02-23T10:26:23.887Z,38.52
2023-02-23T10:28:53.565Z,38.38
2023-02-23T10:31:43.389Z,38.44
2023-02-23T10:34:15.154Z,37.80
2023-02-23T10:36:51.766Z,37.90
2023-02-23T10:39:19.037Z,37.96
2023-02-23T10:41:45.555Z,37.51
2023-02-23T10:44:19.879Z,37.55
2023-02-23T10:46:52.487Z,37.72
2023-02-23T10:49:24.688Z,37.66
2023-02-23T10:51:52.968Z,37.77
2023-02-23T10:54:50.081Z,37.65
2023-02-23T10:57:46.084Z,37.58
2023-02-23T11:00:20.342Z,37.97
2023-02-23T11:02:47.828Z,37.86
2023-02-23T11:05:29.774Z,38.11
2023-02-23T11:08:22.249Z,38.06
2023-02-23T11:11:15.703Z,37.88
2023-02-23T11:13:48.120Z,38.06
2023-02-23T11:16:17.699Z,38.14
2023-02-23T11:19:01.964Z,38.30
2023-02-23T11:21:37.374Z,38.46
2023-02-23T11:24:19.196Z,38.22
2023-02-23T11:26:51.651Z,38.51
2023-02-23T11:29:33.551Z,38.60
2023-02-23T11:32:09.829Z,38.69
2023-02-23T11:34:41.161Z,38.56
2023-02-23T11:37:18.696Z,38.37
2023-02-23T11:40:01.700Z,38.23
2023-02-23T11:42:33.336Z,37.48
2023-02-23T11:45:06.286Z,37.08
2023-02-23T11:47:42.978Z,36.90
2023-02-23T11:50:21.625Z,36.67
2023-02-23T11:52:54.498Z,36.36
2023-02-23T11:55:21.527Z,36.11
2023-02-23T11:57:50.176Z,35.61
2023-02-23T12:00:25.143Z,35.54
2023-02-23T12:02:58.544Z,34.92
2023-02-23T12:05:29.146Z,34.83
2023-02-23T12:08:06.901Z,34.64
2023-02-23T12:10:57.962Z,35.00
2023-02-23T12:13:32.639Z,34.76
2023-02-23T12:16:21.160Z,34.90
2023-02-23T12:18:55.607Z,34.85
2023-02-23T12:21:36.166Z,34.87
2023-02-23T12:24:08.268Z,34.71
2023-02-23T12:26:43.504Z,34.88
2023-02-23T12:29:19.710Z,35.61
2023-02-23T12:31:51.289Z,36.01
2023-02-23T12:34:36.015Z,36.38
2023-02-23T12:37:30.289Z,36.55
2023-02-23T12:40:03.981Z,36.48
2023-02-23T12:42:54.092Z,37.00
2023-02-23T12:45:32.447Z,37.16
2023-02-23T12:48:05.203Z,37.30
2023-02-23T12:50:35.524Z,37.34
2023-02-23T12:53:28.202Z,37.35
2023-02-23T12:56:04.409Z,37.52
2023-02-23T12:58:45.171Z,37.78
2023-02-23T13:01:27.280Z,38.03
2023-02-23T13:04:07.737Z,37.99
2023-02-23T13:06:52.763Z,38.35
2023-02-23T13:09:32.512Z,38.35
2023-02-23T13:12:14.136Z,38.79
2023-02-23T13:15:02.104Z,38.58
2023-02-23T13:17:53.974Z,38.77
2023-02-23T13:20:26.156Z,38.91
2023-02-23T13:23:04.215Z,39.13
2023-02-23T13:25:45.946Z,39.00
2023-02-23T13:28:21.935Z,39.37
2023-02-23T13:30:49.779Z,39.62
2023-02-23T13:33:41.917Z,39.95
2023-02-23T13:36:13.144Z,40.12
2023-02-23T13:39:05.028Z,40.20
2023-02-23T13:41:50.878Z,40.09
2023-02-23T13:44:29.796Z,40.18
2023-02-23T13:47:22.360Z,40.48
2023-02-23T13:49:51.836Z,40.70
2023-02-23T13:52:18.211Z,40.47
2023-02-23T13:55:01.872Z,40.41
2023-02-23T13:57:30.846Z,40.00
2023-02-23T13:59:59.380Z,39.87
2023-02-23T14:02:41.226Z,39.32
2023-02-23T14:05:24.711Z,39.05
2023-02-23T14:07:59.009Z,39.12
2023-02-23T14:10:29.475Z,38.84
2023-02-23T14:13:14.321Z,38.13
2023-02-23T14:15:49.278Z,37.82
2023-02-23T14:18:18.835Z,37.68
2023-02-23T14:20:51.320Z,37.76
2023-02-23T14:23:23.555Z,37.77
2023-02-23T14:25:49.996Z,37.74
2023-02-23T14:28:30.633Z,37.58
2023-02-23T14:31:13.001Z,37.66
2023-02-23T14:33:42.765Z,37.22
2023-02-23T14:36:24.581Z,37.18
2023-02-23T14:38:57.135Z,36.86
2023-02-23T14:41:29.233Z,36.66
2023-02-23T14:44:00.253Z,36.71
2023-02-23T14:46:30.019Z,36.45
2023-02-23T14:49:00.715Z,36.25
2023-02-23T14:51:48.511Z,36.09
2023-02-23T14:54:32.842Z,35.93
2023-02-23T14:57:03.423Z,35.68
2023-02-23T14:59:43.706Z,35.74
2023-02-23T15:02:22.541Z,35.69
2023-02-23T15:04:49.209Z,35.53
2023-02-23T15:07:40.289Z,35.27
2023-02-23T15:10:18.374Z,35.36
2023-02-23T15:12:46.659Z,35.24
2023-02-23T15:15:22.479Z,35.22
2023-02-23T15:17:52.626Z,35.22
2023-02-23T15:20:28.797Z,34.89
2023-02-23T15:22:59.171Z,34.79
2023-02-23T15:25:34.645Z,34.99
2023-02-23T15:28:11.391Z,34.72
2023-02-23T15:30:47.220Z,34.81
2023-02-23T15:33:15.937Z,34.95
2023-02-23T15:35:54.154Z,34.48
2023-02-23T15:38:42.940Z,34.78
2023-02-23T15:41:18.921Z,34.56
2023-02-23T15:43:45.933Z,34.71
2023-02-23T15:46:24.056Z,34.40
2023-02-23T15:48:52.147Z,34.62
2023-02-23T15:51:29.129Z,34.51
2023-02-23T15:53:56.007Z,34.92
2023-02-23T15:56:29.147Z,34.66
2023-02-23T15:59:08.140Z,34.62
2023-02-23T16:01:42.897Z,34.37
2023-02-23T16:04:12.209Z,34.28
2023-02-23T16:06:53.966Z,34.40
2023-02-23T16:09:21.385Z,34.38
2023-02-23T16:12:09.454Z,34.55
2023-02-23T16:14:45.237Z,34.39
2023-02-23T16:17:45.093Z,34.19
2023-02-23T16:20:28.976Z,34.11
2023-02-23T16:22:57.983Z,34.16
2023-02-23T16:25:26.996Z,34.37
2023-02-23T16:28:02.303Z,34.35
2023-02-23T16:30:32.039Z,34.23
2023-02-23T16:33:07.312Z,34.43
2023-02-23T16:35:38.444Z,34.42
2023-02-23T16:38:12.782Z,34.72
2023-02-23T16:40:41.090Z,34.67
2023-02-23T16:43:08.801Z,34.67
2023-02-23T16:45:36.315Z,35.03
2023-02-23T16:48:04.169Z,34.89
2023-02-23T16:50:32.529Z,34.41
2023-02-23T16:53:00.370Z,34.85
2023-02-23T16:55:29.050Z,34.85
2023-02-23T16:58:05.809Z,34.82
2023-02-23T17:00:33.620Z,35.02
2023-02-23T17:03:03.307Z,35.09
2023-02-23T17:05:30.132Z,34.81
2023-02-23T17:07:58.634Z,34.87
2023-02-23T17:10:29.965Z,35.57
2023-02-23T17:13:04.914Z,35.85
2023-02-23T17:15:35.540Z,35.73
2023-02-23T17:18:02.558Z,35.83
2023-02-23T17:20:29.588Z,35.80
2023-02-23T17:22:58.672Z,35.45
2023-02-23T17:25:26.410Z,35.72
2023-02-23T17:27:57.355Z,35.30
2023-02-23T17:30:24.850Z,35.20
2023-02-23T17:32:53.373Z,35.36
2023-02-23T17:35:20.290Z,35.47
2023-02-23T17:37:46.825Z,35.33
2023-02-23T17:40:28.584Z,35.09
2023-02-23T17:42:56.970Z,35.34
2023-02-23T17:45:23.656Z,35.18
2023-02-23T17:47:50.659Z,35.25
2023-02-23T17:50:19.900Z,34.90
2023-02-23T17:52:50.271Z,35.00
2023-02-23T17:55:18.450Z,35.13
2023-02-23T17:57:45.251Z,34.71
2023-02-23T18:00:13.984Z,34.73
2023-02-23T18:02:41.874Z,34.82
2023-02-23T18:05:10.653Z,34.77
2023-02-23T18:07:37.976Z,34.87
2023-02-23T18:10:05.796Z,34.61
2023-02-23T18:12:32.894Z,34.60
2023-02-23T18:14:59.886Z,34.66
2023-02-23T18:17:26.650Z,34.59
2023-02-23T18:19:53.229Z,34.52
2023-02-23T18:22:20.012Z,34.77
2023-02-23T18:24:46.551Z,34.69
2023-02-23T18:27:13.137Z,34.80
2023-02-23T18:29:39.805Z,34.69
2023-02-23T18:32:11.250Z,34.62
2023-02-23T18:34:38.089Z,34.39
2023-02-23T18:37:09.916Z,34.77
2023-02-23T18:39:37.439Z,34.43
2023-02-23T18:42:04.717Z,34.43
2023-02-23T18:44:34.069Z,34.53
2023-02-23T18:47:03.746Z,34.59
2023-02-23T18:49:30.477Z,34.64
2023-02-23T18:51:58.069Z,34.61
2023-02-23T18:54:25.934Z,34.34
2023-02-23T18:56:52.550Z,34.56
2023-02-23T18:59:19.164Z,34.22
2023-02-23T19:01:47.922Z,34.46
2023-02-23T19:04:14.814Z,34.51
2023-02-23T19:06:43.637Z,34.25
2023-02-23T19:09:12.689Z,34.55
2023-02-23T19:11:54.064Z,34.16
2023-02-23T19:14:36.849Z,34.33
2023-02-23T19:17:15.453Z,34.17
2023-02-23T19:19:42.294Z,34.77
2023-02-23T19:22:08.928Z,35.82
2023-02-23T19:24:37.115Z,36.35
2023-02-23T19:27:05.841Z,36.19
2023-02-23T19:29:41.044Z,36.36
2023-02-23T19:32:16.523Z,36.53
2023-02-23T19:34:49.203Z,36.27
2023-02-23T19:37:16.007Z,36.22
2023-02-23T19:39:46.445Z,36.25
2023-02-23T19:42:18.271Z,36.18
2023-02-23T19:44:45.064Z,36.13
2023-02-23T19:47:11.797Z,36.25
2023-02-23T19:49:40.852Z,36.50
2023-02-23T19:52:15.026Z,36.25
2023-02-23T19:54:52.579Z,36.36
2023-02-23T19:57:20.709Z,36.31
2023-02-23T19:59:51.136Z,36.21
2023-02-23T20:02:32.695Z,36.06
2023-02-23T20:05:08.681Z,36.03
2023-02-23T20:07:40.056Z,35.98
2023-02-23T20:10:22.777Z,36.12
2023-02-23T20:12:55.825Z,36.03
2023-02-23T20:15:23.922Z,35.76
2023-02-23T20:18:00.480Z,35.80
2023-02-23T20:20:29.176Z,35.74
2023-02-23T20:22:56.032Z,35.80
2023-02-23T20:25:26.041Z,36.78
2023-02-23T20:28:10.396Z,37.11
2023-02-23T20:30:38.855Z,37.65
2023-02-23T20:33:07.893Z,38.16
2023-02-23T20:35:43.446Z,38.47
2023-02-23T20:38:14.170Z,38.78
2023-02-23T20:40:41.478Z,39.37
2023-02-23T20:43:09.290Z,39.08
2023-02-23T20:45:45.673Z,39.28
2023-02-23T20:48:12.505Z,39.46
2023-02-23T20:50:42.537Z,39.22
2023-02-23T20:53:09.240Z,39.60
2023-02-23T20:55:35.909Z,39.41
2023-02-23T20:58:08.518Z,39.28
2023-02-23T21:00:38.385Z,39.39
2023-02-23T21:03:05.178Z,39.31
2023-02-23T21:05:41.886Z,38.99
2023-02-23T21:08:09.320Z,38.79
2023-02-23T21:10:38.780Z,38.90
2023-02-23T21:13:06.192Z,38.72
2023-02-23T21:15:33.244Z,38.49
2023-02-23T21:18:01.165Z,38.58
2023-02-23T21:20:28.751Z,38.43
2023-02-23T21:22:57.771Z,38.28
2023-02-23T21:25:26.771Z,38.26
2023-02-23T21:27:54.372Z,37.97
2023-02-23T21:30:24.007Z,37.95
2023-02-23T21:32:52.833Z,37.89
2023-02-23T21:35:20.499Z,38.23
2023-02-23T21:37:47.841Z,38.13
2023-02-23T21:40:23.791Z,38.15
2023-02-23T21:42:51.433Z,37.92
2023-02-23T21:45:19.353Z,37.99
2023-02-23T21:47:46.860Z,37.81
2023-02-23T21:50:16.672Z,37.46
2023-02-23T21:52:46.847Z,37.26
2023-02-23T21:55:23.539Z,37.51
2023-02-23T21:57:52.031Z,37.50
2023-02-23T22:00:20.702Z,37.39
2023-02-23T22:02:48.101Z,37.11
2023-02-23T22:05:17.122Z,36.79
2023-02-23T22:07:49.700Z,36.52
2023-02-23T22:10:17.808Z,36.55
2023-02-23T22:12:44.356Z,36.32
2023-02-23T22:15:11.367Z,36.17
2023-02-23T22:17:38.629Z,36.01
2023-02-23T22:20:07.479Z,35.36
2023-02-23T22:22:37.711Z,35.59
2023-02-23T22:25:05.686Z,35.54
2023-02-23T22:27:32.689Z,35.63
2023-02-23T22:30:01.350Z,35.14
2023-02-23T22:32:32.676Z,35.36
2023-02-23T22:35:00.834Z,34.85
2023-02-23T22:37:31.471Z,35.03
2023-02-23T22:40:00.086Z,34.93
2023-02-23T22:42:30.314Z,34.92
2023-02-23T22:44:57.149Z,34.78
2023-02-23T22:47:24.312Z,34.48
2023-02-23T22:49:50.899Z,34.63
2023-02-23T22:52:17.587Z,34.38
2023-02-23T22:54:46.207Z,34.31
2023-02-23T22:57:13.411Z,34.19
2023-02-23T22:59:40.038Z,34.51
2023-02-23T23:02:06.771Z,34.21
2023-02-23T23:04:34.367Z,34.19
2023-02-23T23:07:02.269Z,34.31
2023-02-23T23:09:28.920Z,34.23
2023-02-23T23:11:56.651Z,34.44
2023-02-23T23:14:23.722Z,34.00
2023-02-23T23:16:50.396Z,34.24
2023-02-23T23:19:24.096Z,34.01
2023-02-23T23:21:55.036Z,34.20
2023-02-23T23:24:23.276Z,34.25
2023-02-23T23:26:55.642Z,33.98
2023-02-23T23:29:23.643Z,34.01
2023-02-23T23:31:51.616Z,34.11
2023-02-23T23:34:21.686Z,34.02
2023-02-23T23:36:50.307Z,33.89
2023-02-23T23:39:18.660Z,34.08
2023-02-23T23:41:48.978Z,33.90
2023-02-23T23:44:17.683Z,34.05
2023-02-23T23:46:45.737Z,33.70
2023-02-23T23:49:17.889Z,33.80
2023-02-23T23:51:50.296Z,33.81
2023-02-23T23:54:23.097Z,33.69
2023-02-23T23:56:50.344Z,33.73
2023-02-23T23:59:20.324Z,33.77
